Time;durP1;ratioP1;P1;durP2;ratioP2;P2;SDS_P1;SDS_P2;PMS_P1;PMS_P2;Temp;Humidity;BMP_temperature;BMP_pressure;BME280_temperature;BME280_humidity;BME280_pressure;Samples;Min_cycle;Max_cycle;Signal;HPM_P1;HPM_P2
2024/01/12 00:01:50;;;;;;;;;;;;;;;-144.99;100.00;52627.47;5052164;28;20393;-67
2024/01/12 00:04:17;;;;;;;;;;;;;;;-144.99;100.00;52586.69;5051897;28;19929;-68
2024/01/12 00:06:43;;;;;;;;;;;;;;;-144.99;100.00;52586.69;5050507;28;20011;-67
2024/01/12 00:09:12;;;;;;;;;;;;;;;-144.99;100.00;52627.47;5052428;28;19933;-67
2024/01/12 00:11:40;;;;;;;;;;;;;;;-144.99;100.00;52619.31;5042797;28;19980;-70
2024/01/12 00:14:06;;;;;;;;;;;;;;;-144.99;100.00;52643.78;5052373;28;19928;-68
2024/01/12 00:16:33;;;;;;;;;;;;;;;-144.99;100.00;52670.28;5051060;28;20504;-67
2024/01/12 00:18:59;;;;;;;;;;;;;;;-144.99;100.00;52623.38;5043355;28;19932;-68
2024/01/12 00:21:25;;;;;;;;;;;;;;;-144.99;100.00;52611.16;5052407;28;20224;-67
2024/01/12 00:23:52;;;;;;;;;;;;;;;-144.99;100.00;52623.38;5052510;28;20334;-68
2024/01/12 00:26:18;;;;;;;;;;;;;;;-144.99;100.00;52696.78;5051606;28;19978;-68
2024/01/12 00:28:46;;;;;;;;;;;;;;;-144.99;100.00;52627.47;5051242;28;19932;-63
2024/01/12 00:31:13;;;;;;;;;;;;;;;-144.99;100.00;52637.66;5053720;28;20361;-63
2024/01/12 00:33:39;;;;;;;;;;;;;;;-144.99;100.00;52627.47;5063972;28;19924;-63
2024/01/12 00:36:06;;;;;;;;;;;;;;;-144.99;100.00;52651.94;5067495;28;19975;-63
2024/01/12 00:38:33;;;;;;;;;;;;;;;-144.99;100.00;52574.47;5064769;28;19925;-63
2024/01/12 00:40:59;;;;;;;;;;;;;;;-144.99;100.00;52635.63;5052569;28;19925;-62
2024/01/12 00:43:26;;;;;;;;;;;;;;;-144.99;100.00;52664.16;5048033;28;19925;-65
2024/01/12 00:45:53;;;;;;;;;;;;;;;-144.99;100.00;52639.69;5040975;28;20413;-61
2024/01/12 00:48:20;;;;;;;;;;;;;;;-144.99;100.00;52629.50;5048794;28;19967;-69
2024/01/12 00:50:47;;;;;;;;;;;;;;;-144.99;100.00;52651.94;5050478;28;19964;-69
2024/01/12 00:53:13;;;;;;;;;;;;;;;-144.99;100.00;52611.16;5051412;28;19951;-68
2024/01/12 00:55:40;;;;;;;;;;;;;;;-144.99;100.00;52668.22;5052434;28;20525;-68
2024/01/12 00:58:06;;;;;;;;;;;;;;;-144.99;100.00;52623.38;5052216;28;19961;-69
2024/01/12 01:00:33;;;;;;;;;;;;;;;-144.99;100.00;52658.03;5050363;28;20003;-68
2024/01/12 01:03:02;;;;;;;;;;;;;;;-144.99;100.00;52672.31;5051263;28;20410;-68
2024/01/12 01:05:28;;;;;;;;;;;;;;;-144.99;100.00;52668.22;5047511;28;19956;-69
2024/01/12 01:07:55;;;;;;;;;;;;;;;-144.99;100.00;52621.34;5048974;28;20444;-69
2024/01/12 01:10:21;;;;;;;;;;;;;;;-144.99;100.00;52680.47;5047867;28;19964;-69
2024/01/12 01:12:48;;;;;;;;;;;;;;;-144.99;100.00;52649.88;5049938;28;20186;-69
2024/01/12 01:15:14;;;;;;;;;;;;;;;-144.99;100.00;52643.78;5057740;28;19928;-70
2024/01/12 01:17:42;;;;;;;;;;;;;;;-144.99;100.00;52627.47;5061045;28;19959;-71
2024/01/12 01:20:10;;;;;;;;;;;;;;;-144.99;100.00;52639.69;5050639;28;19972;-71
2024/01/12 01:22:37;;;;;;;;;;;;;;;-144.99;100.00;52627.47;5043306;28;19925;-70
2024/01/12 01:25:03;;;;;;;;;;;;;;;-144.99;100.00;52666.19;5050558;28;20066;-71
2024/01/12 01:27:30;;;;;;;;;;;;;;;-144.99;100.00;52639.69;5043128;28;19953;-71
2024/01/12 01:29:57;;;;;;;;;;;;;;;-144.99;100.00;52619.31;5050893;28;19952;-72
2024/01/12 01:32:23;;;;;;;;;;;;;;;-144.99;100.00;52647.84;5054020;28;19925;-72
2024/01/12 01:34:50;;;;;;;;;;;;;;;-144.99;100.00;52631.53;5071360;28;20014;-72
2024/01/12 01:37:17;;;;;;;;;;;;;;;-144.99;100.00;52639.69;5044416;28;19928;-71
2024/01/12 01:39:44;;;;;;;;;;;;;;;-144.99;100.00;52664.16;5047274;28;19983;-72
2024/01/12 01:42:10;;;;;;;;;;;;;;;-144.99;100.00;52664.16;5048898;28;20300;-65
2024/01/12 01:44:37;;;;;;;;;;;;;;;-144.99;100.00;52664.16;5047971;28;20243;-63
2024/01/12 01:47:03;;;;;;;;;;;;;;;-144.99;100.00;52651.94;5050829;28;20356;-63
2024/01/12 01:49:30;;;;;;;;;;;;;;;-144.99;100.00;52635.63;5050432;28;19929;-62
2024/01/12 01:51:57;;;;;;;;;;;;;;;-144.99;100.00;52680.47;5047418;28;19929;-63
2024/01/12 01:54:24;;;;;;;;;;;;;;;-144.99;100.00;52684.53;5046687;28;19968;-62
2024/01/12 01:56:51;;;;;;;;;;;;;;;-144.99;100.00;52623.38;5050130;28;19935;-73
2024/01/12 01:59:17;;;;;;;;;;;;;;;-144.99;100.00;52647.84;5039728;28;19932;-74
2024/01/12 02:01:44;;;;;;;;;;;;;;;-144.99;100.00;52668.22;5043597;28;20012;-64
2024/01/12 02:04:11;;;;;;;;;;;;;;;-144.99;100.00;52635.63;5047841;28;19975;-66
2024/01/12 02:06:38;;;;;;;;;;;;;;;-144.99;100.00;52662.13;5049805;28;19942;-66
2024/01/12 02:09:05;;;;;;;;;;;;;;;-144.99;100.00;52592.81;5049368;28;20011;-66
2024/01/12 02:11:32;;;;;;;;;;;;;;;-144.99;100.00;52643.78;5053102;28;19950;-66
2024/01/12 02:13:59;;;;;;;;;;;;;;;-144.99;100.00;52615.25;5063629;28;19951;-66
2024/01/12 02:16:25;;;;;;;;;;;;;;;-144.99;100.00;52649.88;5068584;28;19925;-64
2024/01/12 02:18:52;;;;;;;;;;;;;;;-144.99;100.00;52660.09;5068910;28;19928;-65
2024/01/12 02:21:20;;;;;;;;;;;;;;;-144.99;100.00;52647.84;5056546;28;20075;-64
2024/01/12 02:23:46;;;;;;;;;;;;;;;-144.99;100.00;52639.69;5045541;28;19964;-64
2024/01/12 02:26:13;;;;;;;;;;;;;;;-144.99;100.00;52666.19;5047087;28;19987;-65
2024/01/12 02:28:39;;;;;;;;;;;;;;;-144.99;100.00;52647.84;5047414;28;20386;-72
2024/01/12 02:31:06;;;;;;;;;;;;;;;-144.99;100.00;52611.16;5049768;28;20398;-70
2024/01/12 02:33:32;;;;;;;;;;;;;;;-144.99;100.00;52635.63;5048487;28;20039;-70
2024/01/12 02:35:59;;;;;;;;;;;;;;;-144.99;100.00;52674.34;5049248;28;19971;-70
2024/01/12 02:38:28;;;;;;;;;;;;;;;-144.99;100.00;52635.63;5048760;28;20406;-70
2024/01/12 02:40:55;;;;;;;;;;;;;;;-144.99;100.00;52668.22;5043556;28;19924;-67
2024/01/12 02:43:21;;;;;;;;;;;;;;;-144.99;100.00;52607.09;5047319;28;19967;-68
2024/01/12 02:45:48;;;;;;;;;;;;;;;-144.99;100.00;52647.84;5053260;28;19980;-69
2024/01/12 02:48:14;;;;;;;;;;;;;;;-144.99;100.00;52641.72;5056533;28;20002;-69
2024/01/12 02:50:41;;;;;;;;;;;;;;;-144.99;100.00;52639.69;5060909;28;19929;-68
2024/01/12 02:53:07;;;;;;;;;;;;;;;-144.99;100.00;52651.94;5065025;28;20019;-75
2024/01/12 02:55:35;;;;;;;;;;;;;;;-144.99;100.00;52688.63;5060098;28;19929;-74
2024/01/12 02:58:02;;;;;;;;;;;;;;;-144.99;100.00;52647.84;5047796;28;19968;-74
2024/01/12 03:00:30;;;;;;;;;;;;;;;-144.99;100.00;52670.28;5052624;28;19976;-71
2024/01/12 03:02:57;;;;;;;;;;;;;;;-144.99;100.00;52645.81;5058203;28;19935;-70
2024/01/12 03:05:23;;;;;;;;;;;;;;;-144.99;100.00;52672.31;5064618;28;19924;-71
2024/01/12 03:07:50;;;;;;;;;;;;;;;-144.99;100.00;52639.69;5056606;28;19998;-71
2024/01/12 03:10:17;;;;;;;;;;;;;;;-144.99;100.00;52656.00;5052070;28;19966;-71
2024/01/12 03:12:45;;;;;;;;;;;;;;;-144.99;100.00;52651.94;5052891;28;20297;-70
2024/01/12 03:15:11;;;;;;;;;;;;;;;-144.99;100.00;52619.31;5050420;28;19968;-70
2024/01/12 03:17:38;;;;;;;;;;;;;;;-144.99;100.00;52641.72;5052334;28;20033;-70
2024/01/12 03:20:06;;;;;;;;;;;;;;;-144.99;100.00;52641.72;5053576;28;19956;-70
2024/01/12 03:22:32;;;;;;;;;;;;;;;-144.99;100.00;52676.38;5053271;28;19931;-71
2024/01/12 03:24:59;;;;;;;;;;;;;;;-144.99;100.00;52639.69;5052588;28;20023;-71
2024/01/12 03:27:25;;;;;;;;;;;;;;;-144.99;100.00;52643.78;5047026;28;20334;-70
2024/01/12 03:29:53;;;;;;;;;;;;;;;-144.99;100.00;52647.84;5053509;28;19972;-70
2024/01/12 03:32:20;;;;;;;;;;;;;;;-144.99;100.00;52637.66;5051063;28;19987;-70
2024/01/12 03:34:46;;;;;;;;;;;;;;;-144.99;100.00;52629.50;5055219;28;19960;-71
2024/01/12 03:37:13;;;;;;;;;;;;;;;-144.99;100.00;52647.84;5051913;28;19971;-71
2024/01/12 03:39:39;;;;;;;;;;;;;;;-144.99;100.00;52680.47;5052401;28;19955;-70
2024/01/12 03:42:06;;;;;;;;;;;;;;;-144.99;100.00;52631.53;5049020;28;19956;-73
2024/01/12 03:44:32;;;;;;;;;;;;;;;-144.99;100.00;52611.16;5053516;28;19992;-73
2024/01/12 03:47:00;;;;;;;;;;;;;;;-144.99;100.00;52651.94;5052039;28;19936;-74
2024/01/12 03:49:27;;;;;;;;;;;;;;;-144.99;100.00;52621.34;5052044;28;19932;-74
2024/01/12 03:51:55;;;;;;;;;;;;;;;-144.99;100.00;52598.94;5053054;28;19928;-74
2024/01/12 03:54:22;;;;;;;;;;;;;;;-144.99;100.00;52594.84;5041872;28;20011;-74
2024/01/12 03:56:49;;;;;;;;;;;;;;;-144.99;100.00;52623.38;5053143;28;19929;-74
2024/01/12 03:59:15;;;;;;;;;;;;;;;-144.99;100.00;52653.97;5045190;28;19983;-74
2024/01/12 04:01:43;;;;;;;;;;;;;;;-144.99;100.00;52643.78;5048973;28;19971;-72
2024/01/12 04:04:11;;;;;;;;;;;;;;;-144.99;100.00;52670.28;5049123;28;19928;-72
2024/01/12 04:06:37;;;;;;;;;;;;;;;-144.99;100.00;52635.63;5051508;28;19924;-72
2024/01/12 04:09:04;;;;;;;;;;;;;;;-144.99;100.00;52651.94;5051005;28;20011;-72
2024/01/12 04:11:30;;;;;;;;;;;;;;;-144.99;100.00;52635.63;5048210;28;20374;-72
2024/01/12 04:13:56;;;;;;;;;;;;;;;-144.99;100.00;52598.94;5051763;28;19925;-72
2024/01/12 04:16:23;;;;;;;;;;;;;;;-144.99;100.00;52639.69;5049798;28;19960;-72
2024/01/12 04:18:49;;;;;;;;;;;;;;;-144.99;100.00;52594.84;5052256;28;20398;-73
2024/01/12 04:21:17;;;;;;;;;;;;;;;-144.99;100.00;52631.53;5051950;28;20447;-72
2024/01/12 04:23:44;;;;;;;;;;;;;;;-144.99;100.00;52598.94;5065640;28;19925;-72
2024/01/12 04:26:10;;;;;;;;;;;;;;;-144.99;100.00;52633.59;5070233;28;19964;-72
2024/01/12 04:28:37;;;;;;;;;;;;;;;-144.99;100.00;52619.31;5068453;28;19928;-73
2024/01/12 04:31:03;;;;;;;;;;;;;;;-144.99;100.00;52660.09;5056126;28;19946;-71
2024/01/12 04:33:30;;;;;;;;;;;;;;;-144.99;100.00;52603.00;5050737;28;19929;-72
2024/01/12 04:35:57;;;;;;;;;;;;;;;-144.99;100.00;52619.31;5049836;28;19975;-71
2024/01/12 04:38:25;;;;;;;;;;;;;;;-144.99;100.00;52668.22;5051855;28;19925;-72
2024/01/12 04:40:51;;;;;;;;;;;;;;;-144.99;100.00;52668.22;5053221;28;19982;-73
2024/01/12 04:43:18;;;;;;;;;;;;;;;-144.99;100.00;52631.53;5042302;28;19936;-74
2024/01/12 04:45:44;;;;;;;;;;;;;;;-144.99;100.00;52680.47;5071229;28;19938;-65
2024/01/12 04:48:11;;;;;;;;;;;;;;;-144.99;100.00;52672.31;5068016;28;20395;-65
2024/01/12 04:50:37;;;;;;;;;;;;;;;-144.99;100.00;52676.38;5064337;28;19971;-66
2024/01/12 04:53:04;;;;;;;;;;;;;;;-144.99;100.00;52643.78;5051553;28;19968;-65
2024/01/12 04:55:32;;;;;;;;;;;;;;;-144.99;100.00;52631.53;5050500;28;19983;-66
2024/01/12 04:57:58;;;;;;;;;;;;;;;-144.99;100.00;52658.03;5049881;28;19929;-65
2024/01/12 05:00:25;;;;;;;;;;;;;;;-144.99;100.00;52664.16;5050392;28;20398;-66
2024/01/12 05:02:51;;;;;;;;;;;;;;;-144.99;100.00;52674.34;5052338;28;19975;-62
2024/01/12 05:05:18;;;;;;;;;;;;;;;-144.99;100.00;52603.00;5061704;28;19928;-72
2024/01/12 05:07:44;;;;;;;;;;;;;;;-144.99;100.00;52651.94;5060098;28;20356;-73
2024/01/12 05:10:10;;;;;;;;;;;;;;;-144.99;100.00;52656.00;5065143;28;19929;-75
2024/01/12 05:12:40;;;;;;;;;;;;;;;-144.99;100.00;52643.78;5058164;28;20147;-74
2024/01/12 05:15:07;;;;;;;;;;;;;;;-144.99;100.00;52619.31;5043506;28;19929;-74
2024/01/12 05:17:34;;;;;;;;;;;;;;;-144.99;100.00;52653.97;5051163;28;20031;-73
2024/01/12 05:20:06;;;;;;;;;;;;;;;-144.99;100.00;52639.69;5049345;28;19925;-73
2024/01/12 05:25:03;;;;;;;;;;;;;;;-144.99;100.00;52635.63;5018924;28;19929;-67
2024/01/12 05:27:30;;;;;;;;;;;;;;;-144.99;100.00;52653.97;5026203;28;19929;-72
2024/01/12 05:29:58;;;;;;;;;;;;;;;-144.99;100.00;52660.09;5029361;28;19925;-73
2024/01/12 05:32:25;;;;;;;;;;;;;;;-144.99;100.00;52603.00;5036783;28;20033;-73
2024/01/12 05:34:52;;;;;;;;;;;;;;;-144.99;100.00;52649.88;5038913;28;19929;-72
2024/01/12 05:37:18;;;;;;;;;;;;;;;-144.99;100.00;52607.09;5028196;28;19965;-72
2024/01/12 05:39:46;;;;;;;;;;;;;;;-144.99;100.00;52615.25;5030782;28;19977;-73
2024/01/12 05:42:13;;;;;;;;;;;;;;;-144.99;100.00;52627.47;5028889;28;20456;-72
2024/01/12 05:44:40;;;;;;;;;;;;;;;-144.99;100.00;52611.16;5031051;28;19925;-73
2024/01/12 05:47:07;;;;;;;;;;;;;;;-144.99;100.00;52619.31;5031869;28;20367;-73
2024/01/12 05:49:34;;;;;;;;;;;;;;;-144.99;100.00;52678.44;5030437;28;19982;-73
2024/01/12 05:52:00;;;;;;;;;;;;;;;-144.99;100.00;52664.16;5030722;28;19952;-73
2024/01/12 05:54:27;;;;;;;;;;;;;;;-144.99;100.00;52674.34;5031316;28;19957;-73
2024/01/12 05:56:53;;;;;;;;;;;;;;;-144.99;100.00;52619.31;5030925;28;19925;-73
2024/01/12 05:59:20;;;;;;;;;;;;;;;-144.99;100.00;52684.53;5030662;28;19994;-72
2024/01/12 06:01:47;;;;;;;;;;;;;;;-144.99;100.00;52643.78;5028691;28;19933;-71
2024/01/12 06:04:15;;;;;;;;;;;;;;;-144.99;100.00;52627.47;5025722;28;20028;-73
2024/01/12 06:06:42;;;;;;;;;;;;;;;-144.99;100.00;52643.78;5027473;28;20421;-74
2024/01/12 06:09:08;;;;;;;;;;;;;;;-144.99;100.00;52660.09;5028239;28;20005;-73
2024/01/12 06:11:35;;;;;;;;;;;;;;;-144.99;100.00;52635.63;5029276;28;19929;-73
2024/01/12 06:14:02;;;;;;;;;;;;;;;-144.99;100.00;52607.09;5027227;28;20008;-75
2024/01/12 06:16:29;;;;;;;;;;;;;;;-144.99;100.00;52592.81;5029993;28;19980;-72
2024/01/12 06:18:55;;;;;;;;;;;;;;;-144.99;100.00;52666.19;4680567;28;9999955;-69
2024/01/12 06:21:23;;;;;;;;;;;;;;;-144.99;100.00;52619.31;5024410;28;19975;-69
2024/01/12 06:23:50;;;;;;;;;;;;;;;-144.99;100.00;52668.22;5022290;28;20541;-71
2024/01/12 06:26:16;;;;;;;;;;;;;;;-144.99;100.00;52656.00;5020921;28;19929;-70
2024/01/12 06:28:43;;;;;;;;;;;;;;;-144.99;100.00;52619.31;5027309;28;19940;-68
2024/01/12 06:31:09;;;;;;;;;;;;;;;-144.99;100.00;52660.09;5027980;28;20043;-68
2024/01/12 06:33:35;;;;;;;;;;;;;;;-144.99;100.00;52651.94;5028302;28;19928;-69
2024/01/12 06:36:02;;;;;;;;;;;;;;;-144.99;100.00;52649.88;5024571;28;19925;-70
2024/01/12 06:38:30;;;;;;;;;;;;;;;-144.99;100.00;52651.94;5026767;28;20229;-70
2024/01/12 06:40:57;;;;;;;;;;;;;;;-144.99;100.00;52613.19;5027509;28;19936;-69
2024/01/12 06:43:23;;;;;;;;;;;;;;;-144.99;100.00;52627.47;5028304;28;20394;-67
2024/01/12 06:45:50;;;;;;;;;;;;;;;-144.99;100.00;52658.03;5027845;28;20361;-71
2024/01/12 06:48:16;;;;;;;;;;;;;;;-144.99;100.00;52647.84;5027341;28;20015;-69
2024/01/12 06:50:43;;;;;;;;;;;;;;;-144.99;100.00;52647.84;5028103;28;19932;-68
2024/01/12 06:53:10;;;;;;;;;;;;;;;-144.99;100.00;52635.63;5028836;28;20034;-70
2024/01/12 06:55:38;;;;;;;;;;;;;;;-144.99;100.00;52639.69;5028608;28;19976;-69
2024/01/12 06:58:04;;;;;;;;;;;;;;;-144.99;100.00;52623.38;5029032;28;20024;-69
2024/01/12 07:00:31;;;;;;;;;;;;;;;-144.99;100.00;52662.13;5027272;28;20028;-70
2024/01/12 07:02:58;;;;;;;;;;;;;;;-144.99;100.00;52658.03;5028092;28;19929;-69
2024/01/12 07:05:25;;;;;;;;;;;;;;;-144.99;100.00;52656.00;5026261;28;19929;-70
2024/01/12 07:07:51;;;;;;;;;;;;;;;-144.99;100.00;52639.69;5026797;28;19926;-69
2024/01/12 07:10:18;;;;;;;;;;;;;;;-144.99;100.00;52647.84;5024090;28;20426;-69
2024/01/12 07:12:47;;;;;;;;;;;;;;;-144.99;100.00;52611.16;5027639;28;20008;-70
2024/01/12 07:15:13;;;;;;;;;;;;;;;-144.99;100.00;52645.81;5027755;28;19941;-69
2024/01/12 07:17:40;;;;;;;;;;;;;;;-144.99;100.00;52662.13;5033231;28;20159;-69
2024/01/12 07:20:07;;;;;;;;;;;;;;;-144.99;100.00;52651.94;5026521;28;19964;-70
2024/01/12 07:22:34;;;;;;;;;;;;;;;-144.99;100.00;52651.94;5026777;28;19940;-69
2024/01/12 07:25:01;;;;;;;;;;;;;;;-144.99;100.00;52627.47;5027191;28;20366;-69
2024/01/12 07:27:27;;;;;;;;;;;;;;;-144.99;100.00;52662.13;5024270;28;19933;-68
2024/01/12 07:29:55;;;;;;;;;;;;;;;-144.99;100.00;52635.63;5026864;28;20053;-70
2024/01/12 07:32:21;;;;;;;;;;;;;;;-144.99;100.00;52639.69;5024613;28;20047;-68
2024/01/12 07:34:48;;;;;;;;;;;;;;;-144.99;100.00;52627.47;5027896;28;20369;-67
2024/01/12 07:37:14;;;;;;;;;;;;;;;-144.99;100.00;52647.84;5027425;28;20285;-70
2024/01/12 07:39:41;;;;;;;;;;;;;;;-144.99;100.00;52631.53;5027326;28;19990;-71
2024/01/12 07:42:07;;;;;;;;;;;;;;;-144.99;100.00;52635.63;5025366;28;20087;-68
2024/01/12 07:44:34;;;;;;;;;;;;;;;-144.99;100.00;52641.72;5026829;28;20436;-69
2024/01/12 07:47:02;;;;;;;;;;;;;;;-144.99;100.00;52623.38;5027560;28;19929;-70
2024/01/12 07:49:28;;;;;;;;;;;;;;;-144.99;100.00;52656.00;5028174;28;19933;-70
2024/01/12 07:51:55;;;;;;;;;;;;;;;-144.99;100.00;52603.00;5027695;28;20704;-69
2024/01/12 07:54:21;;;;;;;;;;;;;;;-144.99;100.00;52643.78;5025304;28;19929;-69
2024/01/12 07:56:47;;;;;;;;;;;;;;;-144.99;100.00;52639.69;5027450;28;19955;-69
2024/01/12 07:59:14;;;;;;;;;;;;;;;-144.99;100.00;52635.63;5027206;28;20004;-70
2024/01/12 08:01:41;;;;;;;;;;;;;;;-144.99;100.00;52607.09;5026044;28;20023;-70
2024/01/12 08:04:09;;;;;;;;;;;;;;;-144.99;100.00;52598.94;5024024;28;19925;-70
2024/01/12 08:06:35;;;;;;;;;;;;;;;-144.99;100.00;52619.31;5024793;28;19929;-70
2024/01/12 08:09:02;;;;;;;;;;;;;;;-144.99;100.00;52629.50;5027595;28;20051;-70
2024/01/12 08:11:28;;;;;;;;;;;;;;;-144.99;100.00;52615.25;5027766;28;19968;-68
2024/01/12 08:13:54;;;;;;;;;;;;;;;-144.99;100.00;52615.25;5026158;28;19979;-69
2024/01/12 08:16:21;;;;;;;;;;;;;;;-144.99;100.00;52662.13;5025645;28;19972;-70
2024/01/12 08:18:48;;;;;;;;;;;;;;;-144.99;100.00;52607.09;5027090;28;19932;-68
2024/01/12 08:21:16;;;;;;;;;;;;;;;-144.99;100.00;52643.78;5027424;28;19933;-68
2024/01/12 08:23:42;;;;;;;;;;;;;;;-144.99;100.00;52623.38;5026697;28;20119;-69
2024/01/12 08:26:09;;;;;;;;;;;;;;;-144.99;100.00;52611.16;5024485;28;19929;-69
2024/01/12 08:28:35;;;;;;;;;;;;;;;-144.99;100.00;52635.63;5026938;28;19933;-69
2024/01/12 08:31:03;;;;;;;;;;;;;;;-144.99;100.00;52619.31;5026563;28;19936;-69
2024/01/12 08:33:30;;;;;;;;;;;;;;;-144.99;100.00;52603.00;5026861;28;19999;-70
2024/01/12 08:35:56;;;;;;;;;;;;;;;-144.99;100.00;52619.31;5024504;28;19933;-68
2024/01/12 08:38:24;;;;;;;;;;;;;;;-144.99;100.00;52637.66;5024481;28;20032;-69
2024/01/12 08:40:51;;;;;;;;;;;;;;;-144.99;100.00;52613.19;5026190;28;20015;-69
2024/01/12 08:43:19;;;;;;;;;;;;;;;-144.99;100.00;52658.03;5026505;28;20205;-69
2024/01/12 08:45:45;;;;;;;;;;;;;;;-144.99;100.00;52631.53;5025368;28;20007;-68
2024/01/12 08:48:12;;;;;;;;;;;;;;;-144.99;100.00;52619.31;5024554;28;20538;-70
2024/01/12 08:50:38;;;;;;;;;;;;;;;-144.99;100.00;52643.78;5026904;28;20406;-70
2024/01/12 08:53:05;;;;;;;;;;;;;;;-144.99;100.00;52615.25;5026625;28;19945;-70
2024/01/12 08:55:33;;;;;;;;;;;;;;;-144.99;100.00;52647.84;5028456;28;19929;-70
2024/01/12 08:57:59;;;;;;;;;;;;;;;-144.99;100.00;52603.00;5024815;28;20034;-69
2024/01/12 09:00:26;;;;;;;;;;;;;;;-144.99;100.00;52623.38;5025959;28;20008;-68
2024/01/12 09:02:52;;;;;;;;;;;;;;;-144.99;100.00;52615.25;5026256;28;19925;-68
2024/01/12 09:05:20;;;;;;;;;;;;;;;-144.99;100.00;52615.25;5026455;28;20023;-68
2024/01/12 09:07:46;;;;;;;;;;;;;;;-144.99;100.00;52666.19;5024452;28;19980;-68
2024/01/12 09:10:13;;;;;;;;;;;;;;;-144.99;100.00;52656.00;5025044;28;20957;-69
2024/01/12 09:12:41;;;;;;;;;;;;;;;-144.99;100.00;52631.53;5025994;28;20294;-69
2024/01/12 09:15:08;;;;;;;;;;;;;;;-144.99;100.00;52670.28;5025600;28;19995;-69
2024/01/12 09:17:35;;;;;;;;;;;;;;;-144.99;100.00;52641.72;5024654;28;19943;-68
2024/01/12 09:20:01;;;;;;;;;;;;;;;-144.99;100.00;52600.97;5022040;28;20330;-68
2024/01/12 09:22:28;;;;;;;;;;;;;;;-144.99;100.00;52584.66;5025714;28;20057;-69
2024/01/12 09:24:54;;;;;;;;;;;;;;;-144.99;100.00;52609.13;5025330;28;20016;-68
2024/01/12 09:27:21;;;;;;;;;;;;;;;-144.99;100.00;52662.13;5018915;28;19936;-69
2024/01/12 09:29:49;;;;;;;;;;;;;;;-144.99;100.00;52611.16;5025293;28;19979;-68
2024/01/12 09:32:15;;;;;;;;;;;;;;;-144.99;100.00;52621.34;5025488;28;19932;-69
2024/01/12 09:34:42;;;;;;;;;;;;;;;-144.99;100.00;52611.16;5024607;28;19929;-69
2024/01/12 09:37:08;;;;;;;;;;;;;;;-144.99;100.00;52611.16;5023129;28;19933;-68
2024/01/12 09:39:35;;;;;;;;;;;;;;;-144.99;100.00;52625.44;5025199;28;20031;-68
2024/01/12 09:42:02;;;;;;;;;;;;;;;-144.99;100.00;52629.50;5025525;28;20004;-68
2024/01/12 09:44:29;;;;;;;;;;;;;;;-144.99;100.00;52615.25;5024815;28;19929;-67
2024/01/12 09:46:57;;;;;;;;;;;;;;;-144.99;100.00;52635.63;5022685;28;20092;-68
2024/01/12 09:49:24;;;;;;;;;;;;;;;-144.99;100.00;52609.13;5024368;28;19925;-69
2024/01/12 09:51:51;;;;;;;;;;;;;;;-144.99;100.00;52619.31;5026385;28;20016;-68
2024/01/12 09:54:18;;;;;;;;;;;;;;;-144.99;100.00;52619.31;5025649;28;20298;-69
2024/01/12 09:56:45;;;;;;;;;;;;;;;-144.99;100.00;52651.94;5024766;28;20012;-69
2024/01/12 09:59:11;;;;;;;;;;;;;;;-144.99;100.00;52576.50;5023038;28;19936;-69
2024/01/12 10:01:39;;;;;;;;;;;;;;;-144.99;100.00;52631.53;5024549;28;20402;-68
2024/01/12 10:04:07;;;;;;;;;;;;;;;-144.99;100.00;52627.47;5025251;28;20481;-69
2024/01/12 10:06:33;;;;;;;;;;;;;;;-144.99;100.00;52605.03;5024699;28;19972;-67
2024/01/12 10:09:00;;;;;;;;;;;;;;;-144.99;100.00;52643.78;5022330;28;19991;-69
2024/01/12 10:11:26;;;;;;;;;;;;;;;-144.99;100.00;52611.16;5025229;28;19984;-69
2024/01/12 10:13:53;;;;;;;;;;;;;;;-144.99;100.00;52586.69;5024779;28;20190;-70
2024/01/12 10:16:20;;;;;;;;;;;;;;;-144.99;100.00;52582.63;5021620;28;20022;-68
2024/01/12 10:18:47;;;;;;;;;;;;;;;-144.99;100.00;52594.84;5024451;28;19933;-68
2024/01/12 10:21:15;;;;;;;;;;;;;;;-144.99;100.00;52598.94;5022725;28;20004;-68
2024/01/12 10:23:41;;;;;;;;;;;;;;;-144.99;100.00;52607.09;5024867;28;20021;-68
2024/01/12 10:26:09;;;;;;;;;;;;;;;-144.99;100.00;52615.25;5025419;28;20023;-66
2024/01/12 10:28:35;;;;;;;;;;;;;;;-144.99;100.00;52623.38;5023127;28;19939;-69
2024/01/12 10:31:05;;;;;;;;;;;;;;;-144.99;100.00;52598.94;5024034;28;19933;-67
2024/01/12 10:33:32;;;;;;;;;;;;;;;-144.99;100.00;52617.28;5026182;28;19941;-68
2024/01/12 10:36:04;;;;;;;;;;;;;;;-144.99;100.00;52653.97;5032687;28;20390;-67
2024/01/12 10:38:35;;;;;;;;;;;;;;;-144.99;100.00;52631.53;5024292;28;20030;-69
2024/01/12 10:41:05;;;;;;;;;;;;;;;-144.99;100.00;52615.25;5022473;28;19972;-69
2024/01/12 10:43:36;;;;;;;;;;;;;;;-144.99;100.00;52623.38;5025340;28;19936;-69
2024/01/12 10:46:08;;;;;;;;;;;;;;;-144.99;100.00;52598.94;5024104;28;19929;-67
2024/01/12 10:48:40;;;;;;;;;;;;;;;-144.99;100.00;52598.94;5023669;28;19968;-68
2024/01/12 10:51:10;;;;;;;;;;;;;;;-144.99;100.00;52611.16;5024042;28;19929;-68
2024/01/12 10:53:38;;;;;;;;;;;;;;;-144.99;100.00;52582.63;5025257;28;19925;-69
2024/01/12 10:56:07;;;;;;;;;;;;;;;-144.99;100.00;52582.63;5024978;28;20082;-68
2024/01/12 10:58:34;;;;;;;;;;;;;;;-144.99;100.00;52643.78;5024746;28;19940;-67
2024/01/12 11:01:00;;;;;;;;;;;;;;;-144.99;100.00;52627.47;5021115;28;20646;-67
